sensor_id;sensor_type;location;lat;lon;timestamp;temperature;humidity
5520;DHT22;2782;52.362;10.012;2023-03-01T00:00:20;18.40;54.80
5520;DHT22;2782;52.362;10.012;2023-03-01T00:01:25;18.40;54.80
5520;DHT22;2782;52.362;10.012;2023-03-01T00:02:26;18.40;54.80
5520;DHT22;2782;52.362;10.012;2023-03-01T00:03:28;18.30;54.80
5520;DHT22;2782;52.362;10.012;2023-03-01T00:04:28;18.30;54.80
5520;DHT22;2782;52.362;10.012;2023-03-01T00:05:30;18.30;54.70
5520;DHT22;2782;52.362;10.012;2023-03-01T00:06:31;18.30;54.70
5520;DHT22;2782;52.362;10.012;2023-03-01T00:07:32;18.30;54.70
5520;DHT22;2782;52.362;10.012;2023-03-01T00:08:34;18.30;54.80
5520;DHT22;2782;52.362;10.012;2023-03-01T00:09:36;18.30;54.80
5520;DHT22;2782;52.362;10.012;2023-03-01T00:10:37;18.30;54.80
5520;DHT22;2782;52.362;10.012;2023-03-01T00:11:38;18.30;54.80
5520;DHT22;2782;52.362;10.012;2023-03-01T00:12:39;18.30;54.80
5520;DHT22;2782;52.362;10.012;2023-03-01T00:13:41;18.30;54.80
5520;DHT22;2782;52.362;10.012;2023-03-01T00:14:42;18.30;54.70
5520;DHT22;2782;52.362;10.012;2023-03-01T00:15:43;18.30;54.70
5520;DHT22;2782;52.362;10.012;2023-03-01T00:16:46;18.30;54.80
5520;DHT22;2782;52.362;10.012;2023-03-01T00:17:47;18.30;54.70
5520;DHT22;2782;52.362;10.012;2023-03-01T00:18:48;18.30;54.70
5520;DHT22;2782;52.362;10.012;2023-03-01T00:19:50;18.20;54.60
5520;DHT22;2782;52.362;10.012;2023-03-01T00:20:51;18.20;54.60
5520;DHT22;2782;52.362;10.012;2023-03-01T00:21:53;18.20;54.60
5520;DHT22;2782;52.362;10.012;2023-03-01T00:22:54;18.20;54.70
5520;DHT22;2782;52.362;10.012;2023-03-01T00:23:56;18.20;54.70
5520;DHT22;2782;52.362;10.012;2023-03-01T00:24:57;18.20;54.60
5520;DHT22;2782;52.362;10.012;2023-03-01T00:25:58;18.20;54.60
5520;DHT22;2782;52.362;10.012;2023-03-01T00:26:59;18.20;54.70
5520;DHT22;2782;52.362;10.012;2023-03-01T00:28:00;18.20;54.60
5520;DHT22;2782;52.362;10.012;2023-03-01T00:29:01;18.20;54.70
5520;DHT22;2782;52.362;10.012;2023-03-01T00:30:04;18.20;54.60
5520;DHT22;2782;52.362;10.012;2023-03-01T00:31:06;18.20;54.60
5520;DHT22;2782;52.362;10.012;2023-03-01T00:32:09;18.20;54.70
5520;DHT22;2782;52.362;10.012;2023-03-01T00:33:11;18.20;54.70
5520;DHT22;2782;52.362;10.012;2023-03-01T00:34:11;18.10;54.60
5520;DHT22;2782;52.362;10.012;2023-03-01T00:35:13;18.20;54.70
5520;DHT22;2782;52.362;10.012;2023-03-01T00:36:15;18.20;54.70
5520;DHT22;2782;52.362;10.012;2023-03-01T00:37:17;18.20;54.60
5520;DHT22;2782;52.362;10.012;2023-03-01T00:38:17;18.10;54.60
5520;DHT22;2782;52.362;10.012;2023-03-01T00:39:19;18.20;54.70
5520;DHT22;2782;52.362;10.012;2023-03-01T00:40:19;18.10;54.60
5520;DHT22;2782;52.362;10.012;2023-03-01T00:41:21;18.20;54.60
5520;DHT22;2782;52.362;10.012;2023-03-01T00:42:22;18.10;54.60
5520;DHT22;2782;52.362;10.012;2023-03-01T00:43:24;18.10;54.50
5520;DHT22;2782;52.362;10.012;2023-03-01T00:44:25;18.10;54.60
5520;DHT22;2782;52.362;10.012;2023-03-01T00:45:29;18.10;54.60
5520;DHT22;2782;52.362;10.012;2023-03-01T00:46:31;18.10;54.50
5520;DHT22;2782;52.362;10.012;2023-03-01T00:47:34;18.10;54.50
5520;DHT22;2782;52.362;10.012;2023-03-01T00:48:35;18.10;54.50
5520;DHT22;2782;52.362;10.012;2023-03-01T00:49:37;18.10;54.50
5520;DHT22;2782;52.362;10.012;2023-03-01T00:50:37;18.10;54.50
5520;DHT22;2782;52.362;10.012;2023-03-01T00:51:39;18.10;54.50
5520;DHT22;2782;52.362;10.012;2023-03-01T00:52:41;18.10;54.50
5520;DHT22;2782;52.362;10.012;2023-03-01T00:53:43;18.10;54.50
5520;DHT22;2782;52.362;10.012;2023-03-01T00:54:44;18.10;54.50
5520;DHT22;2782;52.362;10.012;2023-03-01T00:55:46;18.10;54.50
5520;DHT22;2782;52.362;10.012;2023-03-01T00:56:47;18.10;54.50
5520;DHT22;2782;52.362;10.012;2023-03-01T00:57:48;18.10;54.50
5520;DHT22;2782;52.362;10.012;2023-03-01T00:58:49;18.10;54.50
5520;DHT22;2782;52.362;10.012;2023-03-01T00:59:51;18.00;54.40
5520;DHT22;2782;52.362;10.012;2023-03-01T01:00:52;18.10;54.50
5520;DHT22;2782;52.362;10.012;2023-03-01T01:01:54;18.10;54.50
5520;DHT22;2782;52.362;10.012;2023-03-01T01:02:56;18.10;54.50
5520;DHT22;2782;52.362;10.012;2023-03-01T01:03:59;18.00;54.40
5520;DHT22;2782;52.362;10.012;2023-03-01T01:04:59;18.00;54.40
5520;DHT22;2782;52.362;10.012;2023-03-01T01:06:01;18.00;54.40
5520;DHT22;2782;52.362;10.012;2023-03-01T01:07:09;18.00;54.40
5520;DHT22;2782;52.362;10.012;2023-03-01T01:08:11;18.00;54.40
5520;DHT22;2782;52.362;10.012;2023-03-01T01:09:13;18.00;54.40
5520;DHT22;2782;52.362;10.012;2023-03-01T01:10:17;18.00;54.40
5520;DHT22;2782;52.362;10.012;2023-03-01T01:11:19;18.00;54.40
5520;DHT22;2782;52.362;10.012;2023-03-01T01:12:21;18.00;54.40
5520;DHT22;2782;52.362;10.012;2023-03-01T01:13:22;18.00;54.30
5520;DHT22;2782;52.362;10.012;2023-03-01T01:14:23;18.00;54.30
5520;DHT22;2782;52.362;10.012;2023-03-01T01:15:24;18.00;54.30
5520;DHT22;2782;52.362;10.012;2023-03-01T01:16:27;17.90;54.20
5520;DHT22;2782;52.362;10.012;2023-03-01T01:17:28;17.90;54.20
5520;DHT22;2782;52.362;10.012;2023-03-01T01:18:31;17.90;54.20
5520;DHT22;2782;52.362;10.012;2023-03-01T01:19:32;17.90;54.20
5520;DHT22;2782;52.362;10.012;2023-03-01T01:20:35;18.00;54.40
5520;DHT22;2782;52.362;10.012;2023-03-01T01:21:35;17.90;54.30
5520;DHT22;2782;52.362;10.012;2023-03-01T01:22:37;17.90;54.20
5520;DHT22;2782;52.362;10.012;2023-03-01T01:23:38;17.90;54.20
5520;DHT22;2782;52.362;10.012;2023-03-01T01:24:40;17.90;54.20
5520;DHT22;2782;52.362;10.012;2023-03-01T01:25:41;17.90;54.30
5520;DHT22;2782;52.362;10.012;2023-03-01T01:26:43;17.90;54.30
5520;DHT22;2782;52.362;10.012;2023-03-01T01:27:43;17.90;54.20
5520;DHT22;2782;52.362;10.012;2023-03-01T01:28:45;17.90;54.30
5520;DHT22;2782;52.362;10.012;2023-03-01T01:29:46;17.90;54.30
5520;DHT22;2782;52.362;10.012;2023-03-01T01:30:48;17.90;54.20
5520;DHT22;2782;52.362;10.012;2023-03-01T01:31:48;17.90;54.30
5520;DHT22;2782;52.362;10.012;2023-03-01T01:32:50;17.90;54.20
5520;DHT22;2782;52.362;10.012;2023-03-01T01:33:52;17.80;54.20
5520;DHT22;2782;52.362;10.012;2023-03-01T01:34:54;17.90;54.20
5520;DHT22;2782;52.362;10.012;2023-03-01T01:35:55;17.80;54.20
5520;DHT22;2782;52.362;10.012;2023-03-01T01:36:57;17.80;54.20
5520;DHT22;2782;52.362;10.012;2023-03-01T01:37:57;17.80;54.20
5520;DHT22;2782;52.362;10.012;2023-03-01T01:38:59;17.80;54.10
5520;DHT22;2782;52.362;10.012;2023-03-01T01:40:01;17.80;54.10
5520;DHT22;2782;52.362;10.012;2023-03-01T01:41:05;17.80;54.10
5520;DHT22;2782;52.362;10.012;2023-03-01T01:42:06;17.80;54.10
5520;DHT22;2782;52.362;10.012;2023-03-01T01:43:10;17.80;54.10
5520;DHT22;2782;52.362;10.012;2023-03-01T01:44:18;17.80;54.10
5520;DHT22;2782;52.362;10.012;2023-03-01T01:45:32;17.80;54.10
5520;DHT22;2782;52.362;10.012;2023-03-01T01:46:35;17.80;54.20
5520;DHT22;2782;52.362;10.012;2023-03-01T01:47:38;17.80;54.20
5520;DHT22;2782;52.362;10.012;2023-03-01T01:48:41;17.80;54.20
5520;DHT22;2782;52.362;10.012;2023-03-01T01:49:46;17.70;54.10
5520;DHT22;2782;52.362;10.012;2023-03-01T01:50:53;17.70;54.00
5520;DHT22;2782;52.362;10.012;2023-03-01T01:52:01;17.70;54.10
5520;DHT22;2782;52.362;10.012;2023-03-01T01:53:02;17.70;54.00
5520;DHT22;2782;52.362;10.012;2023-03-01T01:54:08;17.70;54.10
5520;DHT22;2782;52.362;10.012;2023-03-01T01:55:12;17.70;54.10
5520;DHT22;2782;52.362;10.012;2023-03-01T01:56:17;17.70;54.10
5520;DHT22;2782;52.362;10.012;2023-03-01T01:57:25;17.70;54.10
5520;DHT22;2782;52.362;10.012;2023-03-01T01:58:29;17.70;54.10
5520;DHT22;2782;52.362;10.012;2023-03-01T01:59:31;17.70;54.10
5520;DHT22;2782;52.362;10.012;2023-03-01T02:00:33;17.70;54.00
5520;DHT22;2782;52.362;10.012;2023-03-01T02:01:34;17.70;54.10
5520;DHT22;2782;52.362;10.012;2023-03-01T02:02:36;17.60;54.00
5520;DHT22;2782;52.362;10.012;2023-03-01T02:03:39;17.70;54.10
5520;DHT22;2782;52.362;10.012;2023-03-01T02:04:43;17.70;54.00
5520;DHT22;2782;52.362;10.012;2023-03-01T02:05:49;17.70;54.10
5520;DHT22;2782;52.362;10.012;2023-03-01T02:06:57;17.60;54.00
5520;DHT22;2782;52.362;10.012;2023-03-01T02:07:58;17.60;54.00
5520;DHT22;2782;52.362;10.012;2023-03-01T02:09:04;17.60;54.00
5520;DHT22;2782;52.362;10.012;2023-03-01T02:10:06;17.60;54.00
5520;DHT22;2782;52.362;10.012;2023-03-01T02:11:08;17.60;54.00
5520;DHT22;2782;52.362;10.012;2023-03-01T02:12:11;17.60;54.00
5520;DHT22;2782;52.362;10.012;2023-03-01T02:13:12;17.60;54.00
5520;DHT22;2782;52.362;10.012;2023-03-01T02:14:14;17.60;54.00
5520;DHT22;2782;52.362;10.012;2023-03-01T02:15:16;17.60;54.00
5520;DHT22;2782;52.362;10.012;2023-03-01T02:16:17;17.60;54.00
5520;DHT22;2782;52.362;10.012;2023-03-01T02:17:19;17.60;54.00
5520;DHT22;2782;52.362;10.012;2023-03-01T02:18:22;17.60;54.00
5520;DHT22;2782;52.362;10.012;2023-03-01T02:19:34;17.60;54.00
5520;DHT22;2782;52.362;10.012;2023-03-01T02:20:43;17.60;54.00
5520;DHT22;2782;52.362;10.012;2023-03-01T02:21:50;17.50;53.90
5520;DHT22;2782;52.362;10.012;2023-03-01T02:22:55;17.60;54.00
5520;DHT22;2782;52.362;10.012;2023-03-01T02:23:59;17.60;54.00
5520;DHT22;2782;52.362;10.012;2023-03-01T02:25:12;17.50;53.80
5520;DHT22;2782;52.362;10.012;2023-03-01T02:26:23;17.50;53.90
5520;DHT22;2782;52.362;10.012;2023-03-01T02:27:29;17.50;53.90
5520;DHT22;2782;52.362;10.012;2023-03-01T02:28:35;17.50;53.90
5520;DHT22;2782;52.362;10.012;2023-03-01T02:29:36;17.50;53.90
5520;DHT22;2782;52.362;10.012;2023-03-01T02:30:38;17.50;53.90
5520;DHT22;2782;52.362;10.012;2023-03-01T02:32:00;17.50;53.90
5520;DHT22;2782;52.362;10.012;2023-03-01T02:33:04;17.50;53.90
5520;DHT22;2782;52.362;10.012;2023-03-01T02:34:06;17.50;53.90
5520;DHT22;2782;52.362;10.012;2023-03-01T02:35:10;17.40;53.80
5520;DHT22;2782;52.362;10.012;2023-03-01T02:36:17;17.50;53.90
5520;DHT22;2782;52.362;10.012;2023-03-01T02:37:19;17.50;53.90
5520;DHT22;2782;52.362;10.012;2023-03-01T02:38:25;17.50;53.80
5520;DHT22;2782;52.362;10.012;2023-03-01T02:39:30;17.40;53.80
5520;DHT22;2782;52.362;10.012;2023-03-01T02:40:34;17.40;53.80
5520;DHT22;2782;52.362;10.012;2023-03-01T02:41:38;17.50;53.80
5520;DHT22;2782;52.362;10.012;2023-03-01T02:42:46;17.50;53.80
5520;DHT22;2782;52.362;10.012;2023-03-01T02:43:49;17.40;53.80
5520;DHT22;2782;52.362;10.012;2023-03-01T02:44:51;17.50;53.80
5520;DHT22;2782;52.362;10.012;2023-03-01T02:45:52;17.40;53.80
5520;DHT22;2782;52.362;10.012;2023-03-01T02:46:56;17.40;53.80
5520;DHT22;2782;52.362;10.012;2023-03-01T02:47:58;17.40;53.80
5520;DHT22;2782;52.362;10.012;2023-03-01T02:48:59;17.40;53.80
5520;DHT22;2782;52.362;10.012;2023-03-01T02:50:00;17.40;53.80
5520;DHT22;2782;52.362;10.012;2023-03-01T02:51:05;17.40;53.80
5520;DHT22;2782;52.362;10.012;2023-03-01T02:52:26;17.40;53.80
5520;DHT22;2782;52.362;10.012;2023-03-01T02:53:35;17.40;53.80
5520;DHT22;2782;52.362;10.012;2023-03-01T02:54:41;17.40;53.70
5520;DHT22;2782;52.362;10.012;2023-03-01T02:55:44;17.40;53.80
5520;DHT22;2782;52.362;10.012;2023-03-01T02:56:45;17.30;53.70
5520;DHT22;2782;52.362;10.012;2023-03-01T02:57:49;17.30;53.70
5520;DHT22;2782;52.362;10.012;2023-03-01T02:58:52;17.40;53.80
5520;DHT22;2782;52.362;10.012;2023-03-01T02:59:55;17.30;53.70
5520;DHT22;2782;52.362;10.012;2023-03-01T03:00:56;17.40;53.80
5520;DHT22;2782;52.362;10.012;2023-03-01T03:02:01;17.30;53.70
5520;DHT22;2782;52.362;10.012;2023-03-01T03:03:01;17.30;53.70
5520;DHT22;2782;52.362;10.012;2023-03-01T03:04:04;17.30;53.60
5520;DHT22;2782;52.362;10.012;2023-03-01T03:05:08;17.40;53.60
5520;DHT22;2782;52.362;10.012;2023-03-01T03:06:10;17.30;53.50
5520;DHT22;2782;52.362;10.012;2023-03-01T03:07:11;17.30;53.50
5520;DHT22;2782;52.362;10.012;2023-03-01T03:08:13;17.30;53.50
5520;DHT22;2782;52.362;10.012;2023-03-01T03:09:15;17.30;53.50
5520;DHT22;2782;52.362;10.012;2023-03-01T03:10:19;17.30;53.50
5520;DHT22;2782;52.362;10.012;2023-03-01T03:11:20;17.30;53.50
5520;DHT22;2782;52.362;10.012;2023-03-01T03:12:22;17.30;53.50
5520;DHT22;2782;52.362;10.012;2023-03-01T03:13:23;17.30;53.50
5520;DHT22;2782;52.362;10.012;2023-03-01T03:14:29;17.30;53.50
5520;DHT22;2782;52.362;10.012;2023-03-01T03:15:31;17.30;53.50
5520;DHT22;2782;52.362;10.012;2023-03-01T03:16:36;17.20;53.40
5520;DHT22;2782;52.362;10.012;2023-03-01T03:17:38;17.20;53.40
5520;DHT22;2782;52.362;10.012;2023-03-01T03:18:40;17.20;53.40
5520;DHT22;2782;52.362;10.012;2023-03-01T03:19:40;17.30;53.60
5520;DHT22;2782;52.362;10.012;2023-03-01T03:20:45;17.20;53.50
5520;DHT22;2782;52.362;10.012;2023-03-01T03:21:46;17.20;53.50
5520;DHT22;2782;52.362;10.012;2023-03-01T03:22:50;17.20;53.50
5520;DHT22;2782;52.362;10.012;2023-03-01T03:23:51;17.20;53.50
5520;DHT22;2782;52.362;10.012;2023-03-01T03:24:53;17.20;53.50
5520;DHT22;2782;52.362;10.012;2023-03-01T03:25:53;17.20;53.40
5520;DHT22;2782;52.362;10.012;2023-03-01T03:26:55;17.20;53.50
5520;DHT22;2782;52.362;10.012;2023-03-01T03:27:57;17.20;53.50
5520;DHT22;2782;52.362;10.012;2023-03-01T03:28:59;17.20;53.50
5520;DHT22;2782;52.362;10.012;2023-03-01T03:30:01;17.20;53.50
5520;DHT22;2782;52.362;10.012;2023-03-01T03:31:05;17.20;53.60
5520;DHT22;2782;52.362;10.012;2023-03-01T03:32:06;17.20;53.50
5520;DHT22;2782;52.362;10.012;2023-03-01T03:33:09;17.20;53.50
5520;DHT22;2782;52.362;10.012;2023-03-01T03:34:10;17.20;53.60
5520;DHT22;2782;52.362;10.012;2023-03-01T03:35:19;17.20;53.60
5520;DHT22;2782;52.362;10.012;2023-03-01T03:36:21;17.10;53.50
5520;DHT22;2782;52.362;10.012;2023-03-01T03:37:23;17.10;53.50
5520;DHT22;2782;52.362;10.012;2023-03-01T03:38:43;17.10;53.50
5520;DHT22;2782;52.362;10.012;2023-03-01T03:39:44;17.10;53.50
5520;DHT22;2782;52.362;10.012;2023-03-01T03:40:46;17.10;53.50
5520;DHT22;2782;52.362;10.012;2023-03-01T03:41:48;17.10;53.60
5520;DHT22;2782;52.362;10.012;2023-03-01T03:42:49;17.20;53.60
5520;DHT22;2782;52.362;10.012;2023-03-01T03:43:51;17.10;53.50
5520;DHT22;2782;52.362;10.012;2023-03-01T03:44:52;17.10;53.50
5520;DHT22;2782;52.362;10.012;2023-03-01T03:45:54;17.10;53.60
5520;DHT22;2782;52.362;10.012;2023-03-01T03:46:57;17.10;53.60
5520;DHT22;2782;52.362;10.012;2023-03-01T03:47:58;17.20;54.00
5520;DHT22;2782;52.362;10.012;2023-03-01T03:48:59;17.10;54.00
5520;DHT22;2782;52.362;10.012;2023-03-01T03:50:00;17.10;54.00
5520;DHT22;2782;52.362;10.012;2023-03-01T03:51:01;17.20;54.10
5520;DHT22;2782;52.362;10.012;2023-03-01T03:52:05;17.20;54.10
5520;DHT22;2782;52.362;10.012;2023-03-01T03:53:13;17.20;54.00
5520;DHT22;2782;52.362;10.012;2023-03-01T03:54:14;17.30;54.10
5520;DHT22;2782;52.362;10.012;2023-03-01T03:55:16;17.30;54.10
5520;DHT22;2782;52.362;10.012;2023-03-01T03:56:19;17.30;54.00
5520;DHT22;2782;52.362;10.012;2023-03-01T03:57:21;17.30;54.00
5520;DHT22;2782;52.362;10.012;2023-03-01T03:58:24;17.30;54.00
5520;DHT22;2782;52.362;10.012;2023-03-01T03:59:26;17.30;54.00
5520;DHT22;2782;52.362;10.012;2023-03-01T04:00:27;17.40;54.00
5520;DHT22;2782;52.362;10.012;2023-03-01T04:01:30;17.40;54.00
5520;DHT22;2782;52.362;10.012;2023-03-01T04:02:31;17.40;54.00
5520;DHT22;2782;52.362;10.012;2023-03-01T04:03:33;17.40;54.00
5520;DHT22;2782;52.362;10.012;2023-03-01T04:04:35;17.40;54.00
5520;DHT22;2782;52.362;10.012;2023-03-01T04:05:36;17.40;54.00
5520;DHT22;2782;52.362;10.012;2023-03-01T04:06:38;17.40;54.00
5520;DHT22;2782;52.362;10.012;2023-03-01T04:07:41;17.40;53.90
5520;DHT22;2782;52.362;10.012;2023-03-01T04:08:42;17.40;54.00
5520;DHT22;2782;52.362;10.012;2023-03-01T04:09:43;17.40;53.90
5520;DHT22;2782;52.362;10.012;2023-03-01T04:10:46;17.50;54.00
5520;DHT22;2782;52.362;10.012;2023-03-01T04:11:48;17.40;53.90
5520;DHT22;2782;52.362;10.012;2023-03-01T04:12:48;17.50;54.00
5520;DHT22;2782;52.362;10.012;2023-03-01T04:13:51;17.40;53.90
5520;DHT22;2782;52.362;10.012;2023-03-01T04:14:52;17.40;54.00
5520;DHT22;2782;52.362;10.012;2023-03-01T04:15:54;17.50;54.10
5520;DHT22;2782;52.362;10.012;2023-03-01T04:16:56;17.50;54.10
5520;DHT22;2782;52.362;10.012;2023-03-01T04:17:58;17.50;54.10
5520;DHT22;2782;52.362;10.012;2023-03-01T04:18:59;17.50;54.10
5520;DHT22;2782;52.362;10.012;2023-03-01T04:20:01;17.50;54.10
5520;DHT22;2782;52.362;10.012;2023-03-01T04:21:05;17.50;54.10
5520;DHT22;2782;52.362;10.012;2023-03-01T04:22:07;17.50;54.10
5520;DHT22;2782;52.362;10.012;2023-03-01T04:23:12;17.50;54.10
5520;DHT22;2782;52.362;10.012;2023-03-01T04:24:16;17.50;54.10
5520;DHT22;2782;52.362;10.012;2023-03-01T04:25:16;17.50;54.10
5520;DHT22;2782;52.362;10.012;2023-03-01T04:26:18;17.50;54.10
5520;DHT22;2782;52.362;10.012;2023-03-01T04:27:20;17.60;54.20
5520;DHT22;2782;52.362;10.012;2023-03-01T04:28:22;17.60;54.20
5520;DHT22;2782;52.362;10.012;2023-03-01T04:29:24;17.60;54.20
5520;DHT22;2782;52.362;10.012;2023-03-01T04:30:25;17.60;54.20
5520;DHT22;2782;52.362;10.012;2023-03-01T04:31:27;17.60;54.20
5520;DHT22;2782;52.362;10.012;2023-03-01T04:32:30;17.60;54.20
5520;DHT22;2782;52.362;10.012;2023-03-01T04:33:32;17.60;54.20
5520;DHT22;2782;52.362;10.012;2023-03-01T04:34:32;17.60;54.20
5520;DHT22;2782;52.362;10.012;2023-03-01T04:35:35;17.60;54.30
5520;DHT22;2782;52.362;10.012;2023-03-01T04:36:36;17.60;54.20
5520;DHT22;2782;52.362;10.012;2023-03-01T04:37:38;17.70;54.30
5520;DHT22;2782;52.362;10.012;2023-03-01T04:38:39;17.70;54.30
5520;DHT22;2782;52.362;10.012;2023-03-01T04:39:41;17.70;54.30
5520;DHT22;2782;52.362;10.012;2023-03-01T04:40:45;17.60;54.30
5520;DHT22;2782;52.362;10.012;2023-03-01T04:41:47;17.70;54.30
5520;DHT22;2782;52.362;10.012;2023-03-01T04:42:48;17.70;54.40
5520;DHT22;2782;52.362;10.012;2023-03-01T04:43:50;17.70;54.30
5520;DHT22;2782;52.362;10.012;2023-03-01T04:44:51;17.70;54.30
5520;DHT22;2782;52.362;10.012;2023-03-01T04:45:53;17.70;54.30
5520;DHT22;2782;52.362;10.012;2023-03-01T04:46:53;17.70;54.30
5520;DHT22;2782;52.362;10.012;2023-03-01T04:47:56;17.70;54.30
5520;DHT22;2782;52.362;10.012;2023-03-01T04:48:58;17.70;54.30
5520;DHT22;2782;52.362;10.012;2023-03-01T04:50:00;17.70;54.30
5520;DHT22;2782;52.362;10.012;2023-03-01T04:51:00;17.70;54.30
5520;DHT22;2782;52.362;10.012;2023-03-01T04:52:02;17.70;54.40
5520;DHT22;2782;52.362;10.012;2023-03-01T04:53:04;17.70;54.30
5520;DHT22;2782;52.362;10.012;2023-03-01T04:54:06;17.70;54.40
5520;DHT22;2782;52.362;10.012;2023-03-01T04:55:09;17.70;54.40
5520;DHT22;2782;52.362;10.012;2023-03-01T04:56:11;17.70;54.40
5520;DHT22;2782;52.362;10.012;2023-03-01T04:57:14;17.70;54.40
5520;DHT22;2782;52.362;10.012;2023-03-01T04:58:15;17.70;54.50
5520;DHT22;2782;52.362;10.012;2023-03-01T04:59:16;17.70;54.50
5520;DHT22;2782;52.362;10.012;2023-03-01T05:00:18;17.70;54.50
5520;DHT22;2782;52.362;10.012;2023-03-01T05:01:22;17.70;54.50
5520;DHT22;2782;52.362;10.012;2023-03-01T05:02:23;17.70;54.60
5520;DHT22;2782;52.362;10.012;2023-03-01T05:03:25;17.70;54.60
5520;DHT22;2782;52.362;10.012;2023-03-01T05:04:28;17.70;54.60
5520;DHT22;2782;52.362;10.012;2023-03-01T05:05:32;17.70;54.60
5520;DHT22;2782;52.362;10.012;2023-03-01T05:06:33;17.70;54.60
5520;DHT22;2782;52.362;10.012;2023-03-01T05:07:34;17.70;54.60
5520;DHT22;2782;52.362;10.012;2023-03-01T05:08:36;17.70;54.60
5520;DHT22;2782;52.362;10.012;2023-03-01T05:09:37;17.70;54.60
5520;DHT22;2782;52.362;10.012;2023-03-01T05:10:38;17.70;54.60
5520;DHT22;2782;52.362;10.012;2023-03-01T05:11:39;17.70;54.60
5520;DHT22;2782;52.362;10.012;2023-03-01T05:12:41;17.70;54.70
5520;DHT22;2782;52.362;10.012;2023-03-01T05:13:41;17.70;54.60
5520;DHT22;2782;52.362;10.012;2023-03-01T05:14:43;17.70;54.70
5520;DHT22;2782;52.362;10.012;2023-03-01T05:15:44;17.70;54.70
5520;DHT22;2782;52.362;10.012;2023-03-01T05:16:45;17.70;54.70
5520;DHT22;2782;52.362;10.012;2023-03-01T05:17:47;17.70;54.70
5520;DHT22;2782;52.362;10.012;2023-03-01T05:18:49;17.70;54.70
5520;DHT22;2782;52.362;10.012;2023-03-01T05:19:51;17.70;54.70
5520;DHT22;2782;52.362;10.012;2023-03-01T05:20:52;17.70;54.80
5520;DHT22;2782;52.362;10.012;2023-03-01T05:21:56;17.70;54.80
5520;DHT22;2782;52.362;10.012;2023-03-01T05:23:04;17.70;54.80
5520;DHT22;2782;52.362;10.012;2023-03-01T05:24:07;17.70;54.90
5520;DHT22;2782;52.362;10.012;2023-03-01T05:25:11;17.70;54.90
5520;DHT22;2782;52.362;10.012;2023-03-01T05:26:15;17.70;54.90
5520;DHT22;2782;52.362;10.012;2023-03-01T05:27:17;17.70;55.00
5520;DHT22;2782;52.362;10.012;2023-03-01T05:28:19;17.70;55.00
5520;DHT22;2782;52.362;10.012;2023-03-01T05:29:21;17.70;55.00
5520;DHT22;2782;52.362;10.012;2023-03-01T05:30:25;17.70;55.00
5520;DHT22;2782;52.362;10.012;2023-03-01T05:31:27;17.70;55.00
5520;DHT22;2782;52.362;10.012;2023-03-01T05:32:28;17.70;55.00
5520;DHT22;2782;52.362;10.012;2023-03-01T05:33:32;17.80;55.10
5520;DHT22;2782;52.362;10.012;2023-03-01T05:34:35;17.70;55.00
5520;DHT22;2782;52.362;10.012;2023-03-01T05:35:37;17.80;55.10
5520;DHT22;2782;52.362;10.012;2023-03-01T05:36:37;17.80;55.20
5520;DHT22;2782;52.362;10.012;2023-03-01T05:37:41;17.80;55.20
5520;DHT22;2782;52.362;10.012;2023-03-01T05:38:42;17.80;55.20
5520;DHT22;2782;52.362;10.012;2023-03-01T05:39:44;17.80;55.20
5520;DHT22;2782;52.362;10.012;2023-03-01T05:40:46;17.80;55.20
5520;DHT22;2782;52.362;10.012;2023-03-01T05:41:48;17.80;55.20
5520;DHT22;2782;52.362;10.012;2023-03-01T05:42:54;17.80;55.30
5520;DHT22;2782;52.362;10.012;2023-03-01T05:43:55;17.80;55.20
5520;DHT22;2782;52.362;10.012;2023-03-01T05:44:57;17.80;55.30
5520;DHT22;2782;52.362;10.012;2023-03-01T05:45:57;17.80;55.30
5520;DHT22;2782;52.362;10.012;2023-03-01T05:47:00;17.90;55.30
5520;DHT22;2782;52.362;10.012;2023-03-01T05:48:00;17.90;55.30
5520;DHT22;2782;52.362;10.012;2023-03-01T05:49:02;17.90;55.30
5520;DHT22;2782;52.362;10.012;2023-03-01T05:50:05;17.90;55.30
5520;DHT22;2782;52.362;10.012;2023-03-01T05:51:07;17.90;55.30
5520;DHT22;2782;52.362;10.012;2023-03-01T05:52:09;17.90;55.40
5520;DHT22;2782;52.362;10.012;2023-03-01T05:53:12;17.90;55.40
5520;DHT22;2782;52.362;10.012;2023-03-01T05:54:13;17.90;55.40
5520;DHT22;2782;52.362;10.012;2023-03-01T05:55:15;17.90;55.50
5520;DHT22;2782;52.362;10.012;2023-03-01T05:56:17;17.90;55.60
5520;DHT22;2782;52.362;10.012;2023-03-01T05:57:18;17.90;55.80
5520;DHT22;2782;52.362;10.012;2023-03-01T05:58:19;17.90;55.90
5520;DHT22;2782;52.362;10.012;2023-03-01T05:59:22;17.90;56.20
5520;DHT22;2782;52.362;10.012;2023-03-01T06:00:22;18.00;56.60
5520;DHT22;2782;52.362;10.012;2023-03-01T06:01:24;18.00;56.90
5520;DHT22;2782;52.362;10.012;2023-03-01T06:02:24;18.00;57.60
5520;DHT22;2782;52.362;10.012;2023-03-01T06:03:27;18.00;57.70
5520;DHT22;2782;52.362;10.012;2023-03-01T06:04:29;18.00;57.80
5520;DHT22;2782;52.362;10.012;2023-03-01T06:05:31;18.00;57.50
5520;DHT22;2782;52.362;10.012;2023-03-01T06:06:34;18.00;57.80
5520;DHT22;2782;52.362;10.012;2023-03-01T06:07:34;18.00;58.00
5520;DHT22;2782;52.362;10.012;2023-03-01T06:08:36;18.00;57.80
5520;DHT22;2782;52.362;10.012;2023-03-01T06:09:37;18.00;58.30
5520;DHT22;2782;52.362;10.012;2023-03-01T06:10:38;18.00;58.60
5520;DHT22;2782;52.362;10.012;2023-03-01T06:11:40;18.00;58.50
5520;DHT22;2782;52.362;10.012;2023-03-01T06:12:42;18.00;58.50
5520;DHT22;2782;52.362;10.012;2023-03-01T06:13:44;18.10;58.60
5520;DHT22;2782;52.362;10.012;2023-03-01T06:14:45;18.00;59.20
5520;DHT22;2782;52.362;10.012;2023-03-01T06:15:48;18.00;58.70
5520;DHT22;2782;52.362;10.012;2023-03-01T06:16:49;18.10;58.80
5520;DHT22;2782;52.362;10.012;2023-03-01T06:17:50;18.00;58.90
5520;DHT22;2782;52.362;10.012;2023-03-01T06:18:51;18.00;59.00
5520;DHT22;2782;52.362;10.012;2023-03-01T06:19:53;18.00;59.10
5520;DHT22;2782;52.362;10.012;2023-03-01T06:20:55;18.00;59.10
5520;DHT22;2782;52.362;10.012;2023-03-01T06:21:57;18.00;59.20
5520;DHT22;2782;52.362;10.012;2023-03-01T06:22:58;18.10;59.50
5520;DHT22;2782;52.362;10.012;2023-03-01T06:24:00;18.10;59.60
5520;DHT22;2782;52.362;10.012;2023-03-01T06:25:03;18.10;59.70
5520;DHT22;2782;52.362;10.012;2023-03-01T06:26:08;18.10;59.80
5520;DHT22;2782;52.362;10.012;2023-03-01T06:27:09;18.10;59.90
5520;DHT22;2782;52.362;10.012;2023-03-01T06:28:10;18.10;59.80
5520;DHT22;2782;52.362;10.012;2023-03-01T06:29:12;18.10;59.70
5520;DHT22;2782;52.362;10.012;2023-03-01T06:30:14;18.10;59.80
5520;DHT22;2782;52.362;10.012;2023-03-01T06:31:16;18.10;59.50
5520;DHT22;2782;52.362;10.012;2023-03-01T06:32:18;18.00;59.20
5520;DHT22;2782;52.362;10.012;2023-03-01T06:33:19;18.00;59.40
5520;DHT22;2782;52.362;10.012;2023-03-01T06:34:23;18.00;59.20
5520;DHT22;2782;52.362;10.012;2023-03-01T06:35:24;18.00;59.40
5520;DHT22;2782;52.362;10.012;2023-03-01T06:36:31;18.00;59.20
5520;DHT22;2782;52.362;10.012;2023-03-01T06:37:32;18.00;59.60
5520;DHT22;2782;52.362;10.012;2023-03-01T06:38:34;18.00;59.70
5520;DHT22;2782;52.362;10.012;2023-03-01T06:39:35;18.00;59.30
5520;DHT22;2782;52.362;10.012;2023-03-01T06:40:36;18.00;59.20